sensor_id;sensor_type;location;lat;lon;timestamp;temperature;humidity
10692;DHT22;5396;50.950;6.988;2023-03-01T00:00:46;0.10;99.90
10692;DHT22;5396;50.950;6.988;2023-03-01T00:03:12;0.20;99.90
10692;DHT22;5396;50.950;6.988;2023-03-01T00:05:46;0.20;99.90
10692;DHT22;5396;50.950;6.988;2023-03-01T00:08:12;0.20;99.90
10692;DHT22;5396;50.950;6.988;2023-03-01T00:10:37;0.30;99.90
10692;DHT22;5396;50.950;6.988;2023-03-01T00:13:03;0.30;99.90
10692;DHT22;5396;50.950;6.988;2023-03-01T00:15:31;0.30;99.90
10692;DHT22;5396;50.950;6.988;2023-03-01T00:17:57;0.30;99.90
10692;DHT22;5396;50.950;6.988;2023-03-01T00:20:23;0.30;99.90
10692;DHT22;5396;50.950;6.988;2023-03-01T00:22:48;0.20;99.90
10692;DHT22;5396;50.950;6.988;2023-03-01T00:25:14;0.30;99.90
10692;DHT22;5396;50.950;6.988;2023-03-01T00:27:39;0.30;99.90
10692;DHT22;5396;50.950;6.988;2023-03-01T00:30:06;0.30;99.90
10692;DHT22;5396;50.950;6.988;2023-03-01T00:32:31;0.30;99.90
10692;DHT22;5396;50.950;6.988;2023-03-01T00:34:57;0.20;99.90
10692;DHT22;5396;50.950;6.988;2023-03-01T00:37:23;0.20;99.90
10692;DHT22;5396;50.950;6.988;2023-03-01T00:39:49;0.20;99.90
10692;DHT22;5396;50.950;6.988;2023-03-01T00:42:16;0.20;99.90
10692;DHT22;5396;50.950;6.988;2023-03-01T00:44:42;0.20;99.90
10692;DHT22;5396;50.950;6.988;2023-03-01T00:47:07;0.30;99.90
10692;DHT22;5396;50.950;6.988;2023-03-01T00:49:33;0.20;99.90
10692;DHT22;5396;50.950;6.988;2023-03-01T00:51:59;0.20;99.90
10692;DHT22;5396;50.950;6.988;2023-03-01T00:54:24;0.20;99.90
10692;DHT22;5396;50.950;6.988;2023-03-01T00:56:50;0.20;99.90
10692;DHT22;5396;50.950;6.988;2023-03-01T00:59:15;0.20;99.90
10692;DHT22;5396;50.950;6.988;2023-03-01T01:01:41;0.20;99.90
10692;DHT22;5396;50.950;6.988;2023-03-01T01:04:10;0.20;99.90
10692;DHT22;5396;50.950;6.988;2023-03-01T01:06:39;0.20;99.90
10692;DHT22;5396;50.950;6.988;2023-03-01T01:09:06;0.20;99.90
10692;DHT22;5396;50.950;6.988;2023-03-01T01:11:33;0.10;99.90
10692;DHT22;5396;50.950;6.988;2023-03-01T01:14:00;0.10;99.90
10692;DHT22;5396;50.950;6.988;2023-03-01T01:16:27;0.10;99.90
10692;DHT22;5396;50.950;6.988;2023-03-01T01:18:53;0.10;99.90
10692;DHT22;5396;50.950;6.988;2023-03-01T01:21:21;0.00;99.90
10692;DHT22;5396;50.950;6.988;2023-03-01T01:23:48;-0.10;99.90
10692;DHT22;5396;50.950;6.988;2023-03-01T01:26:20;-0.20;99.90
10692;DHT22;5396;50.950;6.988;2023-03-01T01:28:46;-0.20;99.90
10692;DHT22;5396;50.950;6.988;2023-03-01T01:31:12;-0.10;99.90
10692;DHT22;5396;50.950;6.988;2023-03-01T01:33:38;-0.20;99.90
10692;DHT22;5396;50.950;6.988;2023-03-01T01:36:05;-0.10;99.90
10692;DHT22;5396;50.950;6.988;2023-03-01T01:38:30;-0.10;99.90
10692;DHT22;5396;50.950;6.988;2023-03-01T01:40:56;-0.20;99.90
10692;DHT22;5396;50.950;6.988;2023-03-01T01:43:35;-0.20;99.90
10692;DHT22;5396;50.950;6.988;2023-03-01T01:48:47;-0.30;99.90
10692;DHT22;5396;50.950;6.988;2023-03-01T01:51:18;-0.30;99.90
10692;DHT22;5396;50.950;6.988;2023-03-01T01:53:46;-0.30;99.90
10692;DHT22;5396;50.950;6.988;2023-03-01T01:56:14;-0.30;99.90
10692;DHT22;5396;50.950;6.988;2023-03-01T01:58:42;-0.40;99.90
10692;DHT22;5396;50.950;6.988;2023-03-01T02:01:09;-0.40;99.90
10692;DHT22;5396;50.950;6.988;2023-03-01T02:03:38;-0.50;99.90
10692;DHT22;5396;50.950;6.988;2023-03-01T02:06:28;-0.50;99.90
10692;DHT22;5396;50.950;6.988;2023-03-01T02:08:59;-0.50;99.90
10692;DHT22;5396;50.950;6.988;2023-03-01T02:11:25;-0.70;99.90
10692;DHT22;5396;50.950;6.988;2023-03-01T02:13:54;-0.70;99.90
10692;DHT22;5396;50.950;6.988;2023-03-01T02:16:20;-0.80;99.90
10692;DHT22;5396;50.950;6.988;2023-03-01T02:18:46;-0.90;99.90
10692;DHT22;5396;50.950;6.988;2023-03-01T02:21:25;-0.90;99.90
10692;DHT22;5396;50.950;6.988;2023-03-01T02:23:54;-0.80;99.90
10692;DHT22;5396;50.950;6.988;2023-03-01T02:26:39;-0.80;99.90
10692;DHT22;5396;50.950;6.988;2023-03-01T02:29:06;-0.80;99.90
10692;DHT22;5396;50.950;6.988;2023-03-01T02:31:31;-0.90;99.90
10692;DHT22;5396;50.950;6.988;2023-03-01T02:34:14;-1.00;99.90
10692;DHT22;5396;50.950;6.988;2023-03-01T02:36:49;-0.90;99.90
10692;DHT22;5396;50.950;6.988;2023-03-01T02:39:24;-1.00;99.90
10692;DHT22;5396;50.950;6.988;2023-03-01T02:41:53;-1.00;99.90
10692;DHT22;5396;50.950;6.988;2023-03-01T02:44:19;-1.00;99.90
10692;DHT22;5396;50.950;6.988;2023-03-01T02:46:53;-1.00;99.90
10692;DHT22;5396;50.950;6.988;2023-03-01T02:55:01;-1.00;99.90
10692;DHT22;5396;50.950;6.988;2023-03-01T02:57:28;-1.00;99.90
10692;DHT22;5396;50.950;6.988;2023-03-01T02:59:57;-1.00;99.90
10692;DHT22;5396;50.950;6.988;2023-03-01T03:02:26;-1.00;99.90
10692;DHT22;5396;50.950;6.988;2023-03-01T03:07:34;-1.00;99.90
10692;DHT22;5396;50.950;6.988;2023-03-01T03:10:02;-1.00;99.90
10692;DHT22;5396;50.950;6.988;2023-03-01T03:12:27;-1.00;99.90
10692;DHT22;5396;50.950;6.988;2023-03-01T03:14:53;-1.10;99.90
10692;DHT22;5396;50.950;6.988;2023-03-01T03:17:18;-1.20;99.90
10692;DHT22;5396;50.950;6.988;2023-03-01T03:19:44;-1.20;99.90
10692;DHT22;5396;50.950;6.988;2023-03-01T03:22:11;-1.30;99.90
10692;DHT22;5396;50.950;6.988;2023-03-01T03:24:37;-1.30;99.90
10692;DHT22;5396;50.950;6.988;2023-03-01T03:27:04;-1.40;99.90
10692;DHT22;5396;50.950;6.988;2023-03-01T03:29:29;-1.40;99.90
10692;DHT22;5396;50.950;6.988;2023-03-01T03:31:55;-1.40;99.90
10692;DHT22;5396;50.950;6.988;2023-03-01T03:34:20;-1.40;99.90
10692;DHT22;5396;50.950;6.988;2023-03-01T03:36:46;-1.30;99.90
10692;DHT22;5396;50.950;6.988;2023-03-01T03:39:11;-1.30;99.90
10692;DHT22;5396;50.950;6.988;2023-03-01T03:41:37;-1.30;99.90
10692;DHT22;5396;50.950;6.988;2023-03-01T03:44:03;-1.40;99.90
10692;DHT22;5396;50.950;6.988;2023-03-01T03:46:28;-1.40;99.90
10692;DHT22;5396;50.950;6.988;2023-03-01T03:48:54;-1.40;99.90
10692;DHT22;5396;50.950;6.988;2023-03-01T03:51:19;-1.40;99.90
10692;DHT22;5396;50.950;6.988;2023-03-01T03:53:48;-1.40;99.90
10692;DHT22;5396;50.950;6.988;2023-03-01T03:56:14;-1.40;99.90
10692;DHT22;5396;50.950;6.988;2023-03-01T03:58:39;-1.40;99.90
10692;DHT22;5396;50.950;6.988;2023-03-01T04:01:05;-1.40;99.90
10692;DHT22;5396;50.950;6.988;2023-03-01T04:03:31;-1.40;99.90
10692;DHT22;5396;50.950;6.988;2023-03-01T04:05:59;-1.40;99.90
10692;DHT22;5396;50.950;6.988;2023-03-01T04:08:25;-1.50;99.90
10692;DHT22;5396;50.950;6.988;2023-03-01T04:10:52;-1.50;99.90
10692;DHT22;5396;50.950;6.988;2023-03-01T04:13:20;-1.50;99.90
10692;DHT22;5396;50.950;6.988;2023-03-01T04:15:53;-1.50;99.90
10692;DHT22;5396;50.950;6.988;2023-03-01T04:18:22;-1.50;99.90
10692;DHT22;5396;50.950;6.988;2023-03-01T04:20:48;-1.40;99.90
10692;DHT22;5396;50.950;6.988;2023-03-01T04:23:16;-1.40;99.90
10692;DHT22;5396;50.950;6.988;2023-03-01T04:28:24;-1.30;99.90
10692;DHT22;5396;50.950;6.988;2023-03-01T04:30:52;-1.30;99.90
10692;DHT22;5396;50.950;6.988;2023-03-01T04:33:18;-1.30;99.90
10692;DHT22;5396;50.950;6.988;2023-03-01T04:35:44;-1.30;99.90
10692;DHT22;5396;50.950;6.988;2023-03-01T04:38:10;-1.30;99.90
10692;DHT22;5396;50.950;6.988;2023-03-01T04:40:36;-1.30;99.90
10692;DHT22;5396;50.950;6.988;2023-03-01T04:43:02;-1.30;99.90
10692;DHT22;5396;50.950;6.988;2023-03-01T04:45:28;-1.30;99.90
10692;DHT22;5396;50.950;6.988;2023-03-01T04:47:54;-1.30;99.90
10692;DHT22;5396;50.950;6.988;2023-03-01T04:50:20;-1.30;99.90
10692;DHT22;5396;50.950;6.988;2023-03-01T04:52:47;-1.30;99.90
10692;DHT22;5396;50.950;6.988;2023-03-01T04:55:13;-1.30;99.90
10692;DHT22;5396;50.950;6.988;2023-03-01T04:57:39;-1.30;99.90
10692;DHT22;5396;50.950;6.988;2023-03-01T05:00:07;-1.20;99.90
10692;DHT22;5396;50.950;6.988;2023-03-01T05:02:57;-1.20;99.90
10692;DHT22;5396;50.950;6.988;2023-03-01T05:07:51;-1.20;99.90
10692;DHT22;5396;50.950;6.988;2023-03-01T05:10:17;-1.10;99.90
10692;DHT22;5396;50.950;6.988;2023-03-01T05:12:43;-1.10;99.90
10692;DHT22;5396;50.950;6.988;2023-03-01T05:15:09;-1.10;99.90
10692;DHT22;5396;50.950;6.988;2023-03-01T05:17:35;-1.20;99.90
10692;DHT22;5396;50.950;6.988;2023-03-01T05:20:00;-1.20;99.90
10692;DHT22;5396;50.950;6.988;2023-03-01T05:22:26;-1.30;99.90
10692;DHT22;5396;50.950;6.988;2023-03-01T05:24:52;-1.40;99.90
10692;DHT22;5396;50.950;6.988;2023-03-01T05:27:20;-1.40;99.90
10692;DHT22;5396;50.950;6.988;2023-03-01T05:29:47;-1.50;99.90
10692;DHT22;5396;50.950;6.988;2023-03-01T05:32:13;-1.60;99.90
10692;DHT22;5396;50.950;6.988;2023-03-01T05:34:41;-1.60;99.90
10692;DHT22;5396;50.950;6.988;2023-03-01T05:37:07;-1.60;99.90
10692;DHT22;5396;50.950;6.988;2023-03-01T05:39:33;-1.60;99.90
10692;DHT22;5396;50.950;6.988;2023-03-01T05:42:00;-1.60;99.90
10692;DHT22;5396;50.950;6.988;2023-03-01T05:44:28;-1.60;99.90
10692;DHT22;5396;50.950;6.988;2023-03-01T05:46:54;-1.60;99.90
10692;DHT22;5396;50.950;6.988;2023-03-01T05:49:20;-1.60;99.90
10692;DHT22;5396;50.950;6.988;2023-03-01T05:51:51;-1.70;99.90
10692;DHT22;5396;50.950;6.988;2023-03-01T05:54:17;-1.70;99.90
10692;DHT22;5396;50.950;6.988;2023-03-01T05:56:44;-1.70;99.90
10692;DHT22;5396;50.950;6.988;2023-03-01T05:59:10;-1.70;99.90
10692;DHT22;5396;50.950;6.988;2023-03-01T06:01:36;-1.80;99.90
10692;DHT22;5396;50.950;6.988;2023-03-01T06:04:03;-1.80;99.90
10692;DHT22;5396;50.950;6.988;2023-03-01T06:06:29;-1.80;99.90
10692;DHT22;5396;50.950;6.988;2023-03-01T06:08:55;-1.90;99.90
10692;DHT22;5396;50.950;6.988;2023-03-01T06:11:22;-1.90;99.90
10692;DHT22;5396;50.950;6.988;2023-03-01T06:13:47;-1.90;99.90
10692;DHT22;5396;50.950;6.988;2023-03-01T06:16:14;-2.00;99.90
10692;DHT22;5396;50.950;6.988;2023-03-01T06:18:40;-2.00;99.90
10692;DHT22;5396;50.950;6.988;2023-03-01T06:21:07;-2.10;99.90
10692;DHT22;5396;50.950;6.988;2023-03-01T06:23:32;-2.00;99.90
10692;DHT22;5396;50.950;6.988;2023-03-01T06:25:58;-2.00;99.90
10692;DHT22;5396;50.950;6.988;2023-03-01T06:28:24;-2.00;99.90
10692;DHT22;5396;50.950;6.988;2023-03-01T06:30:50;-2.00;99.90
10692;DHT22;5396;50.950;6.988;2023-03-01T06:33:17;-1.90;99.90
10692;DHT22;5396;50.950;6.988;2023-03-01T06:35:45;-1.90;99.90
10692;DHT22;5396;50.950;6.988;2023-03-01T06:38:12;-1.90;99.90
10692;DHT22;5396;50.950;6.988;2023-03-01T06:40:40;-1.90;99.90
10692;DHT22;5396;50.950;6.988;2023-03-01T06:43:06;-1.90;99.90
10692;DHT22;5396;50.950;6.988;2023-03-01T06:45:33;-1.80;99.90
10692;DHT22;5396;50.950;6.988;2023-03-01T06:48:05;-1.80;99.90
10692;DHT22;5396;50.950;6.988;2023-03-01T06:50:31;-1.80;99.90
10692;DHT22;5396;50.950;6.988;2023-03-01T06:52:57;-1.70;99.90
10692;DHT22;5396;50.950;6.988;2023-03-01T06:55:23;-1.70;99.90
10692;DHT22;5396;50.950;6.988;2023-03-01T06:57:57;-1.70;99.90
10692;DHT22;5396;50.950;6.988;2023-03-01T07:00:23;-1.60;99.90
10692;DHT22;5396;50.950;6.988;2023-03-01T07:02:49;-1.60;99.90
10692;DHT22;5396;50.950;6.988;2023-03-01T07:05:15;-1.70;99.90
10692;DHT22;5396;50.950;6.988;2023-03-01T07:07:40;-1.70;99.90
10692;DHT22;5396;50.950;6.988;2023-03-01T07:10:07;-1.60;99.90
10692;DHT22;5396;50.950;6.988;2023-03-01T07:12:32;-1.50;99.90
10692;DHT22;5396;50.950;6.988;2023-03-01T07:14:58;-1.50;99.90
10692;DHT22;5396;50.950;6.988;2023-03-01T07:17:24;-1.40;99.90
10692;DHT22;5396;50.950;6.988;2023-03-01T07:19:49;-1.40;99.90
10692;DHT22;5396;50.950;6.988;2023-03-01T07:22:15;-1.30;99.90
10692;DHT22;5396;50.950;6.988;2023-03-01T07:24:41;-1.30;99.90
10692;DHT22;5396;50.950;6.988;2023-03-01T07:27:07;-1.10;99.90
10692;DHT22;5396;50.950;6.988;2023-03-01T07:29:33;-1.00;99.90
10692;DHT22;5396;50.950;6.988;2023-03-01T07:31:58;-0.90;99.90
10692;DHT22;5396;50.950;6.988;2023-03-01T07:34:24;-0.90;99.90
10692;DHT22;5396;50.950;6.988;2023-03-01T07:36:50;-0.80;99.90
10692;DHT22;5396;50.950;6.988;2023-03-01T07:39:15;-0.80;99.90
10692;DHT22;5396;50.950;6.988;2023-03-01T07:41:41;-0.70;99.90
10692;DHT22;5396;50.950;6.988;2023-03-01T07:44:07;-0.60;99.90
10692;DHT22;5396;50.950;6.988;2023-03-01T07:46:32;-0.50;99.90
10692;DHT22;5396;50.950;6.988;2023-03-01T07:49:00;-0.40;99.90
10692;DHT22;5396;50.950;6.988;2023-03-01T07:51:25;-0.40;99.90
10692;DHT22;5396;50.950;6.988;2023-03-01T07:53:51;-0.30;99.90
10692;DHT22;5396;50.950;6.988;2023-03-01T07:56:16;-0.30;99.90
10692;DHT22;5396;50.950;6.988;2023-03-01T07:58:46;-0.30;99.90
10692;DHT22;5396;50.950;6.988;2023-03-01T08:01:15;-0.20;99.90
10692;DHT22;5396;50.950;6.988;2023-03-01T08:03:40;-0.10;99.90
10692;DHT22;5396;50.950;6.988;2023-03-01T08:06:08;0.00;99.90
10692;DHT22;5396;50.950;6.988;2023-03-01T08:08:35;0.00;99.90
10692;DHT22;5396;50.950;6.988;2023-03-01T08:11:02;0.10;99.90
10692;DHT22;5396;50.950;6.988;2023-03-01T08:13:28;0.20;99.90
10692;DHT22;5396;50.950;6.988;2023-03-01T08:16:00;0.20;99.90
10692;DHT22;5396;50.950;6.988;2023-03-01T08:18:25;0.30;99.90
10692;DHT22;5396;50.950;6.988;2023-03-01T08:20:51;0.50;99.90
10692;DHT22;5396;50.950;6.988;2023-03-01T08:23:16;0.60;99.90
10692;DHT22;5396;50.950;6.988;2023-03-01T08:25:42;0.70;99.90
10692;DHT22;5396;50.950;6.988;2023-03-01T08:28:07;0.80;99.90
10692;DHT22;5396;50.950;6.988;2023-03-01T08:30:34;0.90;99.90
10692;DHT22;5396;50.950;6.988;2023-03-01T08:32:59;1.00;99.90
10692;DHT22;5396;50.950;6.988;2023-03-01T08:35:25;1.10;99.90
10692;DHT22;5396;50.950;6.988;2023-03-01T08:37:50;1.10;99.90
10692;DHT22;5396;50.950;6.988;2023-03-01T08:40:16;1.30;99.90
10692;DHT22;5396;50.950;6.988;2023-03-01T08:42:42;1.40;99.90
10692;DHT22;5396;50.950;6.988;2023-03-01T08:45:12;1.50;99.90
10692;DHT22;5396;50.950;6.988;2023-03-01T08:47:39;1.50;99.90
10692;DHT22;5396;50.950;6.988;2023-03-01T08:50:05;1.60;99.90
10692;DHT22;5396;50.950;6.988;2023-03-01T08:52:32;1.70;99.90
10692;DHT22;5396;50.950;6.988;2023-03-01T08:54:58;1.80;99.90
10692;DHT22;5396;50.950;6.988;2023-03-01T08:57:23;1.80;99.90
10692;DHT22;5396;50.950;6.988;2023-03-01T08:59:49;1.90;99.90
10692;DHT22;5396;50.950;6.988;2023-03-01T09:02:17;2.00;99.90
10692;DHT22;5396;50.950;6.988;2023-03-01T09:04:43;2.00;99.90
10692;DHT22;5396;50.950;6.988;2023-03-01T09:07:10;2.10;99.90
10692;DHT22;5396;50.950;6.988;2023-03-01T09:09:36;2.10;99.90
10692;DHT22;5396;50.950;6.988;2023-03-01T09:12:03;2.20;99.90
10692;DHT22;5396;50.950;6.988;2023-03-01T09:14:28;2.30;99.90
10692;DHT22;5396;50.950;6.988;2023-03-01T09:16:54;2.40;99.90
10692;DHT22;5396;50.950;6.988;2023-03-01T09:19:20;2.50;99.90
10692;DHT22;5396;50.950;6.988;2023-03-01T09:21:46;2.60;99.90
10692;DHT22;5396;50.950;6.988;2023-03-01T09:24:19;2.60;99.90
10692;DHT22;5396;50.950;6.988;2023-03-01T09:26:44;2.60;99.90
10692;DHT22;5396;50.950;6.988;2023-03-01T09:29:13;2.60;99.90
10692;DHT22;5396;50.950;6.988;2023-03-01T09:31:39;2.70;99.90
10692;DHT22;5396;50.950;6.988;2023-03-01T09:34:05;2.80;99.90
10692;DHT22;5396;50.950;6.988;2023-03-01T09:36:31;2.80;99.90
10692;DHT22;5396;50.950;6.988;2023-03-01T09:38:57;2.80;99.90
10692;DHT22;5396;50.950;6.988;2023-03-01T09:45:10;2.90;99.90
10692;DHT22;5396;50.950;6.988;2023-03-01T09:47:16;2.90;99.90
10692;DHT22;5396;50.950;6.988;2023-03-01T09:49:43;3.00;99.90
10692;DHT22;5396;50.950;6.988;2023-03-01T09:55:24;3.10;99.90
10692;DHT22;5396;50.950;6.988;2023-03-01T09:57:56;3.20;99.90
10692;DHT22;5396;50.950;6.988;2023-03-01T10:00:39;3.30;99.90
10692;DHT22;5396;50.950;6.988;2023-03-01T10:03:19;3.40;99.90
10692;DHT22;5396;50.950;6.988;2023-03-01T10:06:12;3.40;99.90
10692;DHT22;5396;50.950;6.988;2023-03-01T10:09:16;3.40;99.90
10692;DHT22;5396;50.950;6.988;2023-03-01T10:11:52;3.50;99.90
10692;DHT22;5396;50.950;6.988;2023-03-01T10:17:00;3.70;99.90
10692;DHT22;5396;50.950;6.988;2023-03-01T10:19:40;3.80;99.90
10692;DHT22;5396;50.950;6.988;2023-03-01T10:22:19;3.80;99.90
10692;DHT22;5396;50.950;6.988;2023-03-01T10:24:49;3.80;99.90
10692;DHT22;5396;50.950;6.988;2023-03-01T10:27:54;3.90;99.90
10692;DHT22;5396;50.950;6.988;2023-03-01T10:30:36;4.00;99.90
10692;DHT22;5396;50.950;6.988;2023-03-01T10:33:16;4.00;99.90
10692;DHT22;5396;50.950;6.988;2023-03-01T10:35:42;4.00;99.90
10692;DHT22;5396;50.950;6.988;2023-03-01T10:38:11;4.10;99.90
10692;DHT22;5396;50.950;6.988;2023-03-01T10:41:04;4.00;99.90
10692;DHT22;5396;50.950;6.988;2023-03-01T10:43:52;4.10;99.90
10692;DHT22;5396;50.950;6.988;2023-03-01T10:46:32;4.10;99.90
10692;DHT22;5396;50.950;6.988;2023-03-01T10:49:24;4.10;99.90
10692;DHT22;5396;50.950;6.988;2023-03-01T10:51:52;4.10;99.90
10692;DHT22;5396;50.950;6.988;2023-03-01T10:54:26;4.20;99.90
10692;DHT22;5396;50.950;6.988;2023-03-01T10:56:55;4.30;99.90
10692;DHT22;5396;50.950;6.988;2023-03-01T11:04:33;4.50;99.90
10692;DHT22;5396;50.950;6.988;2023-03-01T11:07:00;4.50;99.90
10692;DHT22;5396;50.950;6.988;2023-03-01T11:09:26;4.60;99.90
10692;DHT22;5396;50.950;6.988;2023-03-01T11:12:00;4.70;99.90
10692;DHT22;5396;50.950;6.988;2023-03-01T11:14:28;4.60;99.90
10692;DHT22;5396;50.950;6.988;2023-03-01T11:17:10;4.60;99.90
10692;DHT22;5396;50.950;6.988;2023-03-01T11:19:37;4.60;99.90
10692;DHT22;5396;50.950;6.988;2023-03-01T11:22:33;4.70;99.90
10692;DHT22;5396;50.950;6.988;2023-03-01T11:25:00;4.80;99.90
10692;DHT22;5396;50.950;6.988;2023-03-01T11:27:31;4.80;99.90
10692;DHT22;5396;50.950;6.988;2023-03-01T11:30:07;5.00;99.90
10692;DHT22;5396;50.950;6.988;2023-03-01T11:32:47;5.10;99.90
10692;DHT22;5396;50.950;6.988;2023-03-01T11:35:25;5.20;99.90
10692;DHT22;5396;50.950;6.988;2023-03-01T11:38:24;5.20;99.90
10692;DHT22;5396;50.950;6.988;2023-03-01T11:40:57;5.20;99.90
10692;DHT22;5396;50.950;6.988;2023-03-01T11:46:21;5.40;99.90
10692;DHT22;5396;50.950;6.988;2023-03-01T11:59:51;5.70;99.90
10692;DHT22;5396;50.950;6.988;2023-03-01T12:02:32;5.80;99.90
10692;DHT22;5396;50.950;6.988;2023-03-01T12:10:27;5.90;99.90
10692;DHT22;5396;50.950;6.988;2023-03-01T12:18:40;6.20;99.90
10692;DHT22;5396;50.950;6.988;2023-03-01T12:26:48;6.30;99.90
10692;DHT22;5396;50.950;6.988;2023-03-01T12:29:24;6.40;99.90
10692;DHT22;5396;50.950;6.988;2023-03-01T12:37:32;6.60;99.90
10692;DHT22;5396;50.950;6.988;2023-03-01T12:51:23;7.10;99.90
10692;DHT22;5396;50.950;6.988;2023-03-01T12:53:51;7.10;99.90
10692;DHT22;5396;50.950;6.988;2023-03-01T12:56:22;7.20;99.90
10692;DHT22;5396;50.950;6.988;2023-03-01T12:59:13;7.20;99.90
10692;DHT22;5396;50.950;6.988;2023-03-01T13:07:19;7.40;99.90
10692;DHT22;5396;50.950;6.988;2023-03-01T13:10:34;7.50;99.90
10692;DHT22;5396;50.950;6.988;2023-03-01T13:17:55;7.80;99.90
10692;DHT22;5396;50.950;6.988;2023-03-01T13:20:32;7.90;99.90
10692;DHT22;5396;50.950;6.988;2023-03-01T13:23:07;7.90;99.90
10692;DHT22;5396;50.950;6.988;2023-03-01T13:25:34;8.00;99.90
10692;DHT22;5396;50.950;6.988;2023-03-01T13:31:06;8.00;99.90
10692;DHT22;5396;50.950;6.988;2023-03-01T13:33:40;8.10;99.90
10692;DHT22;5396;50.950;6.988;2023-03-01T13:36:07;8.30;99.90
10692;DHT22;5396;50.950;6.988;2023-03-01T13:46:54;13.10;99.90
10692;DHT22;5396;50.950;6.988;2023-03-01T13:49:30;13.30;99.90
10692;DHT22;5396;50.950;6.988;2023-03-01T13:51:58;14.10;99.90
10692;DHT22;5396;50.950;6.988;2023-03-01T13:54:33;13.70;99.90
10692;DHT22;5396;50.950;6.988;2023-03-01T13:57:00;13.90;99.90
10692;DHT22;5396;50.950;6.988;2023-03-01T13:59:27;14.90;99.90
10692;DHT22;5396;50.950;6.988;2023-03-01T14:02:00;14.70;99.90
10692;DHT22;5396;50.950;6.988;2023-03-01T14:04:32;15.00;99.90
10692;DHT22;5396;50.950;6.988;2023-03-01T14:07:19;15.90;99.90
10692;DHT22;5396;50.950;6.988;2023-03-01T14:09:47;16.60;99.90
10692;DHT22;5396;50.950;6.988;2023-03-01T14:12:32;17.10;99.90
10692;DHT22;5396;50.950;6.988;2023-03-01T14:17:43;15.30;99.90
10692;DHT22;5396;50.950;6.988;2023-03-01T14:20:24;15.50;99.90
10692;DHT22;5396;50.950;6.988;2023-03-01T14:22:54;16.00;99.90
10692;DHT22;5396;50.950;6.988;2023-03-01T14:25:22;16.10;99.90
10692;DHT22;5396;50.950;6.988;2023-03-01T14:33:59;15.00;99.90
10692;DHT22;5396;50.950;6.988;2023-03-01T14:36:27;15.50;99.90
10692;DHT22;5396;50.950;6.988;2023-03-01T14:38:53;15.30;99.90
10692;DHT22;5396;50.950;6.988;2023-03-01T14:41:25;14.30;99.90
10692;DHT22;5396;50.950;6.988;2023-03-01T14:43:57;13.50;99.90
10692;DHT22;5396;50.950;6.988;2023-03-01T14:46:32;12.90;99.90
10692;DHT22;5396;50.950;6.988;2023-03-01T14:49:03;12.40;99.90
10692;DHT22;5396;50.950;6.988;2023-03-01T14:51:30;12.00;99.90
10692;DHT22;5396;50.950;6.988;2023-03-01T14:53:56;12.00;99.90
10692;DHT22;5396;50.950;6.988;2023-03-01T14:56:22;12.00;99.90
10692;DHT22;5396;50.950;6.988;2023-03-01T14:58:52;11.80;99.90
10692;DHT22;5396;50.950;6.988;2023-03-01T15:01:18;11.40;99.90
10692;DHT22;5396;50.950;6.988;2023-03-01T15:03:49;11.50;99.90
10692;DHT22;5396;50.950;6.988;2023-03-01T15:06:20;11.10;99.90
10692;DHT22;5396;50.950;6.988;2023-03-01T15:08:49;10.80;99.90
10692;DHT22;5396;50.950;6.988;2023-03-01T15:11:23;10.60;99.90
10692;DHT22;5396;50.950;6.988;2023-03-01T15:13:51;10.30;99.90
10692;DHT22;5396;50.950;6.988;2023-03-01T15:16:31;10.20;99.90
10692;DHT22;5396;50.950;6.988;2023-03-01T15:19:04;10.00;99.90
10692;DHT22;5396;50.950;6.988;2023-03-01T15:21:36;10.00;99.90
10692;DHT22;5396;50.950;6.988;2023-03-01T15:26:49;9.90;99.90
10692;DHT22;5396;50.950;6.988;2023-03-01T15:29:21;9.70;99.90
10692;DHT22;5396;50.950;6.988;2023-03-01T15:31:59;9.40;99.90
10692;DHT22;5396;50.950;6.988;2023-03-01T15:34:31;9.20;99.90
10692;DHT22;5396;50.950;6.988;2023-03-01T15:36:59;9.00;99.90
10692;DHT22;5396;50.950;6.988;2023-03-01T15:39:43;8.90;99.90
10692;DHT22;5396;50.950;6.988;2023-03-01T15:47:48;8.80;99.90
10692;DHT22;5396;50.950;6.988;2023-03-01T15:50:30;8.60;99.90
10692;DHT22;5396;50.950;6.988;2023-03-01T15:52:59;8.70;99.90
10692;DHT22;5396;50.950;6.988;2023-03-01T15:55:27;8.80;99.90
10692;DHT22;5396;50.950;6.988;2023-03-01T15:58:03;8.90;99.90
10692;DHT22;5396;50.950;6.988;2023-03-01T16:00:29;9.10;99.90
10692;DHT22;5396;50.950;6.988;2023-03-01T16:02:55;9.10;99.90
10692;DHT22;5396;50.950;6.988;2023-03-01T16:05:24;9.00;99.90
10692;DHT22;5396;50.950;6.988;2023-03-01T16:07:51;9.00;99.90
10692;DHT22;5396;50.950;6.988;2023-03-01T16:10:18;9.00;99.90
10692;DHT22;5396;50.950;6.988;2023-03-01T16:12:44;9.00;99.90
10692;DHT22;5396;50.950;6.988;2023-03-01T16:15:24;8.80;99.90
10692;DHT22;5396;50.950;6.988;2023-03-01T16:17:50;8.80;99.90
10692;DHT22;5396;50.950;6.988;2023-03-01T16:20:17;9.30;99.90
10692;DHT22;5396;50.950;6.988;2023-03-01T16:22:44;10.00;99.90
10692;DHT22;5396;50.950;6.988;2023-03-01T16:25:11;10.20;99.90
10692;DHT22;5396;50.950;6.988;2023-03-01T16:27:37;10.00;99.90
10692;DHT22;5396;50.950;6.988;2023-03-01T16:30:05;10.20;99.90
10692;DHT22;5396;50.950;6.988;2023-03-01T16:32:31;10.40;99.90
10692;DHT22;5396;50.950;6.988;2023-03-01T16:34:57;10.00;99.90
10692;DHT22;5396;50.950;6.988;2023-03-01T16:37:23;9.30;99.90
10692;DHT22;5396;50.950;6.988;2023-03-01T16:39:48;8.60;99.90
10692;DHT22;5396;50.950;6.988;2023-03-01T16:42:17;8.10;99.90
10692;DHT22;5396;50.950;6.988;2023-03-01T16:44:43;7.70;99.90
10692;DHT22;5396;50.950;6.988;2023-03-01T16:47:08;7.40;99.90
10692;DHT22;5396;50.950;6.988;2023-03-01T16:49:34;7.20;99.90
10692;DHT22;5396;50.950;6.988;2023-03-01T16:51:59;7.10;99.90
10692;DHT22;5396;50.950;6.988;2023-03-01T16:54:25;6.90;99.90
10692;DHT22;5396;50.950;6.988;2023-03-01T16:56:51;6.90;99.90
10692;DHT22;5396;50.950;6.988;2023-03-01T16:59:16;6.80;99.90
10692;DHT22;5396;50.950;6.988;2023-03-01T17:01:44;6.70;99.90
10692;DHT22;5396;50.950;6.988;2023-03-01T17:04:12;6.60;99.90
10692;DHT22;5396;50.950;6.988;2023-03-01T17:06:37;6.50;99.90
10692;DHT22;5396;50.950;6.988;2023-03-01T17:09:03;6.40;99.90
10692;DHT22;5396;50.950;6.988;2023-03-01T17:11:30;6.40;99.90
10692;DHT22;5396;50.950;6.988;2023-03-01T17:13:56;6.30;99.90
10692;DHT22;5396;50.950;6.988;2023-03-01T17:16:22;6.20;99.90
10692;DHT22;5396;50.950;6.988;2023-03-01T17:18:48;6.20;99.90
10692;DHT22;5396;50.950;6.988;2023-03-01T17:21:14;6.10;99.90
10692;DHT22;5396;50.950;6.988;2023-03-01T17:23:41;6.00;99.90
10692;DHT22;5396;50.950;6.988;2023-03-01T17:26:08;6.00;99.90
10692;DHT22;5396;50.950;6.988;2023-03-01T17:28:35;5.90;99.90
10692;DHT22;5396;50.950;6.988;2023-03-01T17:31:02;5.90;99.90
10692;DHT22;5396;50.950;6.988;2023-03-01T17:33:28;5.80;99.90
10692;DHT22;5396;50.950;6.988;2023-03-01T17:35:57;5.70;99.90
10692;DHT22;5396;50.950;6.988;2023-03-01T17:38:23;5.70;99.90
10692;DHT22;5396;50.950;6.988;2023-03-01T17:40:49;5.60;99.90
10692;DHT22;5396;50.950;6.988;2023-03-01T17:43:15;5.60;99.90
10692;DHT22;5396;50.950;6.988;2023-03-01T17:45:43;5.50;99.90
10692;DHT22;5396;50.950;6.988;2023-03-01T17:48:12;5.40;99.90
10692;DHT22;5396;50.950;6.988;2023-03-01T17:50:38;5.40;99.90
10692;DHT22;5396;50.950;6.988;2023-03-01T17:53:05;5.40;99.90
10692;DHT22;5396;50.950;6.988;2023-03-01T17:55:38;5.30;99.90
10692;DHT22;5396;50.950;6.988;2023-03-01T17:58:04;5.30;99.90
10692;DHT22;5396;50.950;6.988;2023-03-01T18:00:30;5.20;99.90
10692;DHT22;5396;50.950;6.988;2023-03-01T18:02:56;5.20;99.90